sensor_id;sensor_type;location;lat;lon;timestamp;P1;durP1;ratioP1;P2;durP2;ratioP2
609;SDS011;292;48.800;9.216;2023-02-28T00:02:13;2.95;;;2.00;;
609;SDS011;292;48.800;9.216;2023-02-28T00:04:42;8.35;;;2.90;;
609;SDS011;292;48.800;9.216;2023-02-28T00:07:10;4.55;;;2.60;;
609;SDS011;292;48.800;9.216;2023-02-28T00:09:36;3.85;;;1.80;;
609;SDS011;292;48.800;9.216;2023-02-28T00:12:03;85.35;;;27.98;;
609;SDS011;292;48.800;9.216;2023-02-28T00:14:35;19.00;;;6.22;;
609;SDS011;292;48.800;9.216;2023-02-28T00:17:04;5.82;;;2.35;;
609;SDS011;292;48.800;9.216;2023-02-28T00:19:31;4.93;;;2.58;;
609;SDS011;292;48.800;9.216;2023-02-28T00:21:58;5.75;;;2.22;;
609;SDS011;292;48.800;9.216;2023-02-28T00:24:26;4.18;;;2.20;;
609;SDS011;292;48.800;9.216;2023-02-28T00:26:53;3.38;;;1.77;;
609;SDS011;292;48.800;9.216;2023-02-28T00:29:20;7.63;;;2.80;;
609;SDS011;292;48.800;9.216;2023-02-28T00:31:47;5.32;;;2.28;;
609;SDS011;292;48.800;9.216;2023-02-28T00:34:16;4.50;;;2.20;;
609;SDS011;292;48.800;9.216;2023-02-28T00:36:43;3.30;;;1.67;;
609;SDS011;292;48.800;9.216;2023-02-28T00:39:11;9.70;;;2.45;;
609;SDS011;292;48.800;9.216;2023-02-28T00:41:38;6.95;;;2.67;;
609;SDS011;292;48.800;9.216;2023-02-28T00:44:05;11.13;;;2.03;;
609;SDS011;292;48.800;9.216;2023-02-28T00:46:32;5.35;;;2.20;;
609;SDS011;292;48.800;9.216;2023-02-28T00:48:59;6.32;;;2.78;;
609;SDS011;292;48.800;9.216;2023-02-28T00:51:28;3.42;;;1.95;;
609;SDS011;292;48.800;9.216;2023-02-28T00:53:55;12.75;;;2.20;;
609;SDS011;292;48.800;9.216;2023-02-28T00:56:22;5.57;;;2.33;;
609;SDS011;292;48.800;9.216;2023-02-28T00:58:48;4.20;;;2.60;;
609;SDS011;292;48.800;9.216;2023-02-28T01:01:15;3.17;;;1.65;;
609;SDS011;292;48.800;9.216;2023-02-28T01:03:42;3.58;;;1.90;;
609;SDS011;292;48.800;9.216;2023-02-28T01:06:09;3.40;;;1.70;;
609;SDS011;292;48.800;9.216;2023-02-28T01:08:38;4.95;;;2.20;;
609;SDS011;292;48.800;9.216;2023-02-28T01:11:09;4.47;;;2.35;;
609;SDS011;292;48.800;9.216;2023-02-28T01:13:37;4.10;;;1.92;;
609;SDS011;292;48.800;9.216;2023-02-28T01:16:05;6.03;;;2.38;;
609;SDS011;292;48.800;9.216;2023-02-28T01:18:32;4.93;;;2.35;;
609;SDS011;292;48.800;9.216;2023-02-28T01:21:02;5.10;;;2.53;;
609;SDS011;292;48.800;9.216;2023-02-28T01:23:30;4.97;;;2.42;;
609;SDS011;292;48.800;9.216;2023-02-28T01:25:59;4.78;;;2.10;;
609;SDS011;292;48.800;9.216;2023-02-28T01:28:31;4.65;;;2.90;;
609;SDS011;292;48.800;9.216;2023-02-28T01:30:57;4.82;;;2.42;;
609;SDS011;292;48.800;9.216;2023-02-28T01:33:25;7.88;;;2.38;;
609;SDS011;292;48.800;9.216;2023-02-28T01:35:57;2.53;;;1.77;;
609;SDS011;292;48.800;9.216;2023-02-28T01:38:24;3.83;;;2.08;;
609;SDS011;292;48.800;9.216;2023-02-28T01:40:51;5.97;;;2.60;;
609;SDS011;292;48.800;9.216;2023-02-28T01:43:21;6.13;;;2.67;;
609;SDS011;292;48.800;9.216;2023-02-28T01:45:50;4.60;;;2.28;;
609;SDS011;292;48.800;9.216;2023-02-28T01:48:18;4.03;;;2.30;;
609;SDS011;292;48.800;9.216;2023-02-28T01:50:47;3.70;;;2.25;;
609;SDS011;292;48.800;9.216;2023-02-28T01:53:15;7.45;;;2.78;;
609;SDS011;292;48.800;9.216;2023-02-28T01:55:46;5.30;;;2.85;;
609;SDS011;292;48.800;9.216;2023-02-28T01:58:15;6.93;;;2.40;;
609;SDS011;292;48.800;9.216;2023-02-28T02:00:44;4.70;;;2.60;;
609;SDS011;292;48.800;9.216;2023-02-28T02:03:13;5.47;;;2.63;;
609;SDS011;292;48.800;9.216;2023-02-28T02:05:44;9.73;;;2.70;;
609;SDS011;292;48.800;9.216;2023-02-28T02:08:13;5.30;;;2.55;;
609;SDS011;292;48.800;9.216;2023-02-28T02:10:44;5.32;;;2.60;;
609;SDS011;292;48.800;9.216;2023-02-28T02:13:21;8.95;;;3.20;;
609;SDS011;292;48.800;9.216;2023-02-28T02:16:02;4.47;;;2.70;;
609;SDS011;292;48.800;9.216;2023-02-28T02:18:37;6.97;;;2.22;;
609;SDS011;292;48.800;9.216;2023-02-28T02:24:15;4.80;;;2.53;;
609;SDS011;292;48.800;9.216;2023-02-28T02:27:08;7.78;;;3.10;;
609;SDS011;292;48.800;9.216;2023-02-28T02:35:38;12.98;;;3.25;;
609;SDS011;292;48.800;9.216;2023-02-28T02:38:10;8.23;;;3.00;;
609;SDS011;292;48.800;9.216;2023-02-28T02:40:47;5.75;;;2.80;;
609;SDS011;292;48.800;9.216;2023-02-28T02:43:20;6.28;;;3.50;;
609;SDS011;292;48.800;9.216;2023-02-28T02:45:53;6.55;;;2.85;;
609;SDS011;292;48.800;9.216;2023-02-28T02:48:24;6.85;;;3.10;;
609;SDS011;292;48.800;9.216;2023-02-28T02:50:59;7.25;;;3.20;;
609;SDS011;292;48.800;9.216;2023-02-28T02:53:30;7.68;;;3.53;;
609;SDS011;292;48.800;9.216;2023-02-28T02:56:07;4.22;;;2.83;;
609;SDS011;292;48.800;9.216;2023-02-28T02:58:35;6.00;;;3.60;;
609;SDS011;292;48.800;9.216;2023-02-28T03:01:07;9.45;;;3.60;;
609;SDS011;292;48.800;9.216;2023-02-28T03:03:37;6.47;;;2.80;;
609;SDS011;292;48.800;9.216;2023-02-28T03:06:07;5.20;;;2.60;;
609;SDS011;292;48.800;9.216;2023-02-28T03:08:35;4.78;;;2.58;;
609;SDS011;292;48.800;9.216;2023-02-28T03:11:04;8.50;;;3.35;;
609;SDS011;292;48.800;9.216;2023-02-28T03:13:38;5.57;;;2.78;;
609;SDS011;292;48.800;9.216;2023-02-28T03:19:39;5.70;;;2.83;;
609;SDS011;292;48.800;9.216;2023-02-28T03:22:29;6.13;;;3.95;;
609;SDS011;292;48.800;9.216;2023-02-28T03:25:07;5.45;;;2.80;;
609;SDS011;292;48.800;9.216;2023-02-28T03:27:40;6.78;;;3.15;;
609;SDS011;292;48.800;9.216;2023-02-28T03:30:14;4.47;;;2.78;;
609;SDS011;292;48.800;9.216;2023-02-28T03:32:50;6.25;;;3.25;;
609;SDS011;292;48.800;9.216;2023-02-28T03:35:21;5.78;;;3.10;;
609;SDS011;292;48.800;9.216;2023-02-28T03:37:52;5.72;;;3.55;;
609;SDS011;292;48.800;9.216;2023-02-28T03:40:21;4.60;;;2.30;;
609;SDS011;292;48.800;9.216;2023-02-28T03:42:53;7.00;;;3.30;;
609;SDS011;292;48.800;9.216;2023-02-28T03:45:25;5.15;;;2.85;;
609;SDS011;292;48.800;9.216;2023-02-28T03:47:56;5.35;;;3.08;;
609;SDS011;292;48.800;9.216;2023-02-28T03:50:27;7.15;;;3.50;;
609;SDS011;292;48.800;9.216;2023-02-28T03:53:04;9.68;;;3.60;;
609;SDS011;292;48.800;9.216;2023-02-28T03:55:35;9.55;;;4.00;;
609;SDS011;292;48.800;9.216;2023-02-28T03:58:09;5.38;;;3.40;;
609;SDS011;292;48.800;9.216;2023-02-28T04:00:43;5.22;;;3.30;;
609;SDS011;292;48.800;9.216;2023-02-28T04:03:13;8.20;;;3.40;;
609;SDS011;292;48.800;9.216;2023-02-28T04:05:45;9.35;;;2.75;;
609;SDS011;292;48.800;9.216;2023-02-28T04:08:19;8.52;;;3.85;;
609;SDS011;292;48.800;9.216;2023-02-28T04:10:48;4.85;;;2.72;;
609;SDS011;292;48.800;9.216;2023-02-28T04:13:20;6.30;;;3.65;;
609;SDS011;292;48.800;9.216;2023-02-28T04:15:47;6.93;;;3.88;;
609;SDS011;292;48.800;9.216;2023-02-28T04:18:14;6.97;;;3.70;;
609;SDS011;292;48.800;9.216;2023-02-28T04:20:41;7.95;;;3.90;;
609;SDS011;292;48.800;9.216;2023-02-28T04:23:08;9.18;;;3.90;;
609;SDS011;292;48.800;9.216;2023-02-28T04:25:38;7.80;;;4.22;;
609;SDS011;292;48.800;9.216;2023-02-28T04:28:06;7.93;;;4.40;;
609;SDS011;292;48.800;9.216;2023-02-28T04:30:33;5.93;;;3.88;;
609;SDS011;292;48.800;9.216;2023-02-28T04:33:01;10.30;;;4.60;;
609;SDS011;292;48.800;9.216;2023-02-28T04:35:28;9.05;;;4.18;;
609;SDS011;292;48.800;9.216;2023-02-28T04:37:55;10.43;;;4.65;;
609;SDS011;292;48.800;9.216;2023-02-28T04:40:22;7.70;;;3.60;;
609;SDS011;292;48.800;9.216;2023-02-28T04:42:50;15.88;;;4.47;;
609;SDS011;292;48.800;9.216;2023-02-28T04:45:17;10.98;;;4.22;;
609;SDS011;292;48.800;9.216;2023-02-28T04:47:44;10.63;;;4.82;;
609;SDS011;292;48.800;9.216;2023-02-28T04:50:11;8.98;;;4.25;;
609;SDS011;292;48.800;9.216;2023-02-28T04:52:38;8.43;;;4.18;;
609;SDS011;292;48.800;9.216;2023-02-28T04:55:05;12.75;;;4.75;;
609;SDS011;292;48.800;9.216;2023-02-28T04:57:32;7.75;;;3.80;;
609;SDS011;292;48.800;9.216;2023-02-28T05:00:01;8.95;;;4.00;;
609;SDS011;292;48.800;9.216;2023-02-28T05:02:34;8.10;;;4.15;;
609;SDS011;292;48.800;9.216;2023-02-28T05:05:01;10.63;;;4.53;;
609;SDS011;292;48.800;9.216;2023-02-28T05:07:28;8.18;;;3.83;;
609;SDS011;292;48.800;9.216;2023-02-28T05:09:55;11.13;;;4.57;;
609;SDS011;292;48.800;9.216;2023-02-28T05:12:22;10.75;;;3.85;;
609;SDS011;292;48.800;9.216;2023-02-28T05:14:49;7.88;;;4.28;;
609;SDS011;292;48.800;9.216;2023-02-28T05:17:18;11.77;;;4.47;;
609;SDS011;292;48.800;9.216;2023-02-28T05:19:45;6.82;;;4.05;;
609;SDS011;292;48.800;9.216;2023-02-28T05:22:13;9.40;;;4.43;;
609;SDS011;292;48.800;9.216;2023-02-28T05:24:41;9.20;;;3.75;;
609;SDS011;292;48.800;9.216;2023-02-28T05:27:08;6.72;;;3.72;;
609;SDS011;292;48.800;9.216;2023-02-28T05:29:36;8.93;;;4.43;;
609;SDS011;292;48.800;9.216;2023-02-28T05:32:10;8.60;;;4.43;;
609;SDS011;292;48.800;9.216;2023-02-28T05:34:39;12.13;;;4.88;;
609;SDS011;292;48.800;9.216;2023-02-28T05:37:08;9.63;;;4.82;;
609;SDS011;292;48.800;9.216;2023-02-28T05:39:38;9.55;;;4.70;;
609;SDS011;292;48.800;9.216;2023-02-28T05:42:05;8.55;;;4.28;;
609;SDS011;292;48.800;9.216;2023-02-28T05:44:32;9.73;;;4.43;;
609;SDS011;292;48.800;9.216;2023-02-28T05:46:59;10.07;;;4.85;;
609;SDS011;292;48.800;9.216;2023-02-28T05:49:26;8.60;;;4.25;;
609;SDS011;292;48.800;9.216;2023-02-28T05:51:55;10.25;;;4.50;;
609;SDS011;292;48.800;9.216;2023-02-28T05:54:22;8.05;;;3.80;;
609;SDS011;292;48.800;9.216;2023-02-28T05:56:48;12.10;;;5.15;;
609;SDS011;292;48.800;9.216;2023-02-28T05:59:15;9.40;;;4.85;;
609;SDS011;292;48.800;9.216;2023-02-28T06:01:43;10.55;;;4.88;;
609;SDS011;292;48.800;9.216;2023-02-28T06:04:13;12.02;;;4.60;;
609;SDS011;292;48.800;9.216;2023-02-28T06:06:43;10.65;;;4.60;;
609;SDS011;292;48.800;9.216;2023-02-28T06:09:12;10.77;;;4.20;;
609;SDS011;292;48.800;9.216;2023-02-28T06:11:39;8.60;;;4.28;;
609;SDS011;292;48.800;9.216;2023-02-28T06:14:09;10.65;;;4.60;;
609;SDS011;292;48.800;9.216;2023-02-28T06:16:41;13.15;;;5.03;;
609;SDS011;292;48.800;9.216;2023-02-28T06:19:08;11.15;;;5.25;;
609;SDS011;292;48.800;9.216;2023-02-28T06:21:36;8.43;;;4.18;;
609;SDS011;292;48.800;9.216;2023-02-28T06:24:03;10.63;;;5.28;;
609;SDS011;292;48.800;9.216;2023-02-28T06:26:32;9.25;;;4.65;;
609;SDS011;292;48.800;9.216;2023-02-28T06:28:59;12.52;;;5.60;;
609;SDS011;292;48.800;9.216;2023-02-28T06:31:26;9.18;;;4.68;;
609;SDS011;292;48.800;9.216;2023-02-28T06:33:54;11.85;;;4.95;;
609;SDS011;292;48.800;9.216;2023-02-28T06:36:21;17.58;;;6.07;;
609;SDS011;292;48.800;9.216;2023-02-28T06:38:48;9.88;;;4.68;;
609;SDS011;292;48.800;9.216;2023-02-28T06:41:19;10.52;;;5.47;;
609;SDS011;292;48.800;9.216;2023-02-28T06:43:48;10.07;;;5.00;;
609;SDS011;292;48.800;9.216;2023-02-28T06:46:15;13.23;;;6.00;;
609;SDS011;292;48.800;9.216;2023-02-28T06:48:43;10.93;;;5.10;;
609;SDS011;292;48.800;9.216;2023-02-28T06:51:11;12.82;;;5.47;;
609;SDS011;292;48.800;9.216;2023-02-28T06:53:40;8.13;;;4.78;;
609;SDS011;292;48.800;9.216;2023-02-28T06:56:08;13.63;;;5.07;;
609;SDS011;292;48.800;9.216;2023-02-28T06:58:36;12.27;;;5.43;;
609;SDS011;292;48.800;9.216;2023-02-28T07:01:06;12.65;;;6.18;;
609;SDS011;292;48.800;9.216;2023-02-28T07:03:34;12.30;;;5.20;;
609;SDS011;292;48.800;9.216;2023-02-28T07:06:02;8.60;;;4.68;;
609;SDS011;292;48.800;9.216;2023-02-28T07:08:31;11.93;;;5.40;;
609;SDS011;292;48.800;9.216;2023-02-28T07:10:58;8.60;;;4.80;;
609;SDS011;292;48.800;9.216;2023-02-28T07:13:25;11.48;;;4.90;;
609;SDS011;292;48.800;9.216;2023-02-28T07:15:53;11.13;;;4.57;;
609;SDS011;292;48.800;9.216;2023-02-28T07:18:22;11.85;;;5.53;;
609;SDS011;292;48.800;9.216;2023-02-28T07:20:49;11.00;;;4.60;;
609;SDS011;292;48.800;9.216;2023-02-28T07:23:16;11.75;;;5.97;;
609;SDS011;292;48.800;9.216;2023-02-28T07:25:44;8.90;;;4.95;;
609;SDS011;292;48.800;9.216;2023-02-28T07:28:12;13.73;;;5.30;;
609;SDS011;292;48.800;9.216;2023-02-28T07:30:39;11.20;;;5.35;;
609;SDS011;292;48.800;9.216;2023-02-28T07:33:07;10.27;;;5.00;;
609;SDS011;292;48.800;9.216;2023-02-28T07:35:35;12.05;;;5.93;;
609;SDS011;292;48.800;9.216;2023-02-28T07:38:03;12.40;;;6.03;;
609;SDS011;292;48.800;9.216;2023-02-28T07:40:30;18.17;;;7.35;;
609;SDS011;292;48.800;9.216;2023-02-28T07:42:58;11.43;;;5.40;;
609;SDS011;292;48.800;9.216;2023-02-28T07:45:28;12.57;;;6.07;;
609;SDS011;292;48.800;9.216;2023-02-28T07:47:56;11.95;;;5.68;;
609;SDS011;292;48.800;9.216;2023-02-28T07:50:24;9.38;;;5.00;;
609;SDS011;292;48.800;9.216;2023-02-28T07:52:57;11.63;;;5.68;;
609;SDS011;292;48.800;9.216;2023-02-28T07:55:24;16.15;;;6.80;;
609;SDS011;292;48.800;9.216;2023-02-28T07:57:51;15.95;;;6.43;;
609;SDS011;292;48.800;9.216;2023-02-28T08:00:18;15.32;;;7.15;;
609;SDS011;292;48.800;9.216;2023-02-28T08:02:46;11.68;;;6.50;;
609;SDS011;292;48.800;9.216;2023-02-28T08:05:13;16.38;;;6.45;;
609;SDS011;292;48.800;9.216;2023-02-28T08:07:40;14.27;;;6.80;;
609;SDS011;292;48.800;9.216;2023-02-28T08:10:10;21.42;;;6.70;;
609;SDS011;292;48.800;9.216;2023-02-28T08:12:37;12.32;;;6.40;;
609;SDS011;292;48.800;9.216;2023-02-28T08:15:04;16.45;;;7.38;;
609;SDS011;292;48.800;9.216;2023-02-28T08:17:32;12.98;;;5.88;;
609;SDS011;292;48.800;9.216;2023-02-28T08:19:59;11.45;;;5.40;;
609;SDS011;292;48.800;9.216;2023-02-28T08:22:29;9.95;;;5.07;;
609;SDS011;292;48.800;9.216;2023-02-28T08:24:55;9.80;;;5.40;;
609;SDS011;292;48.800;9.216;2023-02-28T08:27:24;18.27;;;7.05;;
609;SDS011;292;48.800;9.216;2023-02-28T08:29:51;11.25;;;6.65;;
609;SDS011;292;48.800;9.216;2023-02-28T08:32:18;14.00;;;6.90;;
609;SDS011;292;48.800;9.216;2023-02-28T08:34:45;13.93;;;6.65;;
609;SDS011;292;48.800;9.216;2023-02-28T08:37:12;14.90;;;7.15;;
609;SDS011;292;48.800;9.216;2023-02-28T08:39:39;10.52;;;6.18;;
609;SDS011;292;48.800;9.216;2023-02-28T08:42:06;15.82;;;6.90;;
609;SDS011;292;48.800;9.216;2023-02-28T08:44:36;15.75;;;7.15;;
609;SDS011;292;48.800;9.216;2023-02-28T08:47:03;16.27;;;7.47;;
609;SDS011;292;48.800;9.216;2023-02-28T08:49:30;15.80;;;7.18;;
609;SDS011;292;48.800;9.216;2023-02-28T08:51:57;17.67;;;7.07;;
609;SDS011;292;48.800;9.216;2023-02-28T08:54:24;17.42;;;6.30;;
609;SDS011;292;48.800;9.216;2023-02-28T08:56:55;15.73;;;7.30;;
609;SDS011;292;48.800;9.216;2023-02-28T08:59:22;13.18;;;6.03;;
609;SDS011;292;48.800;9.216;2023-02-28T09:01:51;15.48;;;7.47;;
609;SDS011;292;48.800;9.216;2023-02-28T09:04:20;15.73;;;7.15;;
609;SDS011;292;48.800;9.216;2023-02-28T09:06:47;15.45;;;7.22;;
609;SDS011;292;48.800;9.216;2023-02-28T09:09:15;19.60;;;7.55;;
609;SDS011;292;48.800;9.216;2023-02-28T09:11:42;14.20;;;6.45;;
609;SDS011;292;48.800;9.216;2023-02-28T09:14:09;16.48;;;7.50;;
609;SDS011;292;48.800;9.216;2023-02-28T09:16:36;17.60;;;8.43;;
609;SDS011;292;48.800;9.216;2023-02-28T09:19:04;14.02;;;6.95;;
609;SDS011;292;48.800;9.216;2023-02-28T09:21:31;10.82;;;6.45;;
609;SDS011;292;48.800;9.216;2023-02-28T09:23:58;14.52;;;7.43;;
609;SDS011;292;48.800;9.216;2023-02-28T09:26:26;16.95;;;7.75;;
609;SDS011;292;48.800;9.216;2023-02-28T09:28:53;13.55;;;7.03;;
609;SDS011;292;48.800;9.216;2023-02-28T09:31:22;22.45;;;7.72;;
609;SDS011;292;48.800;9.216;2023-02-28T09:33:51;15.82;;;7.05;;
609;SDS011;292;48.800;9.216;2023-02-28T09:36:21;16.95;;;7.28;;
609;SDS011;292;48.800;9.216;2023-02-28T09:38:49;15.00;;;7.00;;
609;SDS011;292;48.800;9.216;2023-02-28T09:41:19;14.80;;;6.40;;
609;SDS011;292;48.800;9.216;2023-02-28T09:43:47;16.35;;;8.18;;
609;SDS011;292;48.800;9.216;2023-02-28T09:46:27;16.92;;;7.60;;
609;SDS011;292;48.800;9.216;2023-02-28T09:48:59;23.30;;;8.40;;
609;SDS011;292;48.800;9.216;2023-02-28T09:51:37;16.50;;;7.88;;
609;SDS011;292;48.800;9.216;2023-02-28T09:54:16;15.00;;;7.35;;
609;SDS011;292;48.800;9.216;2023-02-28T09:56:45;17.70;;;7.63;;
609;SDS011;292;48.800;9.216;2023-02-28T09:59:20;15.70;;;7.75;;
609;SDS011;292;48.800;9.216;2023-02-28T10:01:57;17.60;;;7.32;;
609;SDS011;292;48.800;9.216;2023-02-28T10:04:37;16.35;;;7.50;;
609;SDS011;292;48.800;9.216;2023-02-28T10:07:17;13.18;;;7.07;;
609;SDS011;292;48.800;9.216;2023-02-28T10:09:51;17.13;;;7.60;;
609;SDS011;292;48.800;9.216;2023-02-28T10:12:21;15.32;;;7.53;;
609;SDS011;292;48.800;9.216;2023-02-28T10:14:49;16.67;;;7.78;;
609;SDS011;292;48.800;9.216;2023-02-28T10:17:19;33.20;;;12.13;;
609;SDS011;292;48.800;9.216;2023-02-28T10:19:55;18.10;;;8.80;;
609;SDS011;292;48.800;9.216;2023-02-28T10:22:36;18.95;;;8.50;;
609;SDS011;292;48.800;9.216;2023-02-28T10:25:17;12.98;;;7.15;;
609;SDS011;292;48.800;9.216;2023-02-28T10:27:46;19.88;;;7.82;;
609;SDS011;292;48.800;9.216;2023-02-28T10:30:13;18.08;;;8.52;;
609;SDS011;292;48.800;9.216;2023-02-28T10:32:49;19.63;;;7.25;;
609;SDS011;292;48.800;9.216;2023-02-28T10:35:19;22.67;;;9.18;;
609;SDS011;292;48.800;9.216;2023-02-28T10:37:49;15.95;;;7.60;;
609;SDS011;292;48.800;9.216;2023-02-28T10:40:27;16.83;;;7.65;;
609;SDS011;292;48.800;9.216;2023-02-28T10:42:57;17.00;;;7.72;;
609;SDS011;292;48.800;9.216;2023-02-28T10:45:25;15.15;;;8.30;;
609;SDS011;292;48.800;9.216;2023-02-28T10:47:55;16.83;;;7.72;;
609;SDS011;292;48.800;9.216;2023-02-28T10:50:28;13.20;;;7.00;;
609;SDS011;292;48.800;9.216;2023-02-28T10:53:07;15.88;;;8.48;;
609;SDS011;292;48.800;9.216;2023-02-28T10:55:42;14.45;;;7.05;;
609;SDS011;292;48.800;9.216;2023-02-28T10:58:20;17.60;;;8.25;;
609;SDS011;292;48.800;9.216;2023-02-28T11:00:48;29.17;;;9.77;;
609;SDS011;292;48.800;9.216;2023-02-28T11:03:24;23.17;;;8.50;;
609;SDS011;292;48.800;9.216;2023-02-28T11:06:03;14.18;;;7.25;;
609;SDS011;292;48.800;9.216;2023-02-28T11:08:34;12.13;;;6.45;;
609;SDS011;292;48.800;9.216;2023-02-28T11:11:14;23.55;;;8.45;;
609;SDS011;292;48.800;9.216;2023-02-28T11:13:41;13.55;;;7.30;;
609;SDS011;292;48.800;9.216;2023-02-28T11:16:10;15.75;;;7.75;;
609;SDS011;292;48.800;9.216;2023-02-28T11:18:40;15.50;;;7.30;;
609;SDS011;292;48.800;9.216;2023-02-28T11:21:09;14.90;;;7.28;;
609;SDS011;292;48.800;9.216;2023-02-28T11:23:44;19.08;;;8.90;;
609;SDS011;292;48.800;9.216;2023-02-28T11:29:09;21.65;;;9.10;;
609;SDS011;292;48.800;9.216;2023-02-28T11:31:45;18.45;;;8.73;;
609;SDS011;292;48.800;9.216;2023-02-28T11:34:28;14.88;;;8.07;;
609;SDS011;292;48.800;9.216;2023-02-28T11:36:56;15.18;;;8.13;;
609;SDS011;292;48.800;9.216;2023-02-28T11:39:26;12.88;;;7.20;;
609;SDS011;292;48.800;9.216;2023-02-28T11:41:57;14.25;;;7.45;;
609;SDS011;292;48.800;9.216;2023-02-28T11:44:38;14.80;;;7.47;;
609;SDS011;292;48.800;9.216;2023-02-28T11:47:17;15.20;;;7.40;;
609;SDS011;292;48.800;9.216;2023-02-28T11:49:52;13.65;;;7.57;;
609;SDS011;292;48.800;9.216;2023-02-28T11:52:33;11.73;;;6.70;;
609;SDS011;292;48.800;9.216;2023-02-28T11:55:13;15.98;;;7.57;;
609;SDS011;292;48.800;9.216;2023-02-28T12:00:54;17.08;;;7.88;;
609;SDS011;292;48.800;9.216;2023-02-28T12:03:42;14.73;;;7.53;;
609;SDS011;292;48.800;9.216;2023-02-28T12:06:18;14.10;;;7.75;;
609;SDS011;292;48.800;9.216;2023-02-28T12:08:54;20.48;;;8.95;;
609;SDS011;292;48.800;9.216;2023-02-28T12:11:42;14.20;;;8.65;;
609;SDS011;292;48.800;9.216;2023-02-28T12:14:21;13.57;;;7.95;;
609;SDS011;292;48.800;9.216;2023-02-28T12:17:06;17.17;;;8.30;;
609;SDS011;292;48.800;9.216;2023-02-28T12:19:44;18.05;;;8.27;;
609;SDS011;292;48.800;9.216;2023-02-28T12:22:31;17.15;;;8.18;;
609;SDS011;292;48.800;9.216;2023-02-28T12:25:19;12.13;;;6.68;;
609;SDS011;292;48.800;9.216;2023-02-28T12:28:02;27.30;;;12.23;;
609;SDS011;292;48.800;9.216;2023-02-28T12:30:31;14.82;;;7.60;;
609;SDS011;292;48.800;9.216;2023-02-28T12:33:03;17.50;;;8.32;;
609;SDS011;292;48.800;9.216;2023-02-28T12:35:33;25.38;;;9.35;;
609;SDS011;292;48.800;9.216;2023-02-28T12:38:04;14.40;;;7.33;;
609;SDS011;292;48.800;9.216;2023-02-28T12:40:41;11.70;;;7.28;;
609;SDS011;292;48.800;9.216;2023-02-28T12:43:15;13.43;;;6.73;;
609;SDS011;292;48.800;9.216;2023-02-28T12:45:45;17.15;;;8.25;;
609;SDS011;292;48.800;9.216;2023-02-28T12:48:18;14.00;;;7.10;;
609;SDS011;292;48.800;9.216;2023-02-28T12:50:51;14.00;;;6.82;;
609;SDS011;292;48.800;9.216;2023-02-28T12:53:21;13.13;;;7.73;;
609;SDS011;292;48.800;9.216;2023-02-28T12:55:56;16.10;;;8.88;;
609;SDS011;292;48.800;9.216;2023-02-28T12:58:37;15.30;;;8.07;;
609;SDS011;292;48.800;9.216;2023-02-28T13:01:24;10.33;;;6.37;;
609;SDS011;292;48.800;9.216;2023-02-28T13:04:08;14.57;;;7.70;;
609;SDS011;292;48.800;9.216;2023-02-28T13:07:04;11.85;;;7.25;;
609;SDS011;292;48.800;9.216;2023-02-28T13:09:40;14.68;;;7.00;;
609;SDS011;292;48.800;9.216;2023-02-28T13:12:12;12.23;;;7.53;;
609;SDS011;292;48.800;9.216;2023-02-28T13:14:42;13.30;;;7.00;;
609;SDS011;292;48.800;9.216;2023-02-28T13:17:11;13.35;;;7.18;;
609;SDS011;292;48.800;9.216;2023-02-28T13:19:44;13.23;;;6.20;;
609;SDS011;292;48.800;9.216;2023-02-28T13:22:36;16.30;;;7.95;;
609;SDS011;292;48.800;9.216;2023-02-28T13:28:13;14.35;;;8.32;;
609;SDS011;292;48.800;9.216;2023-02-28T13:34:39;12.10;;;7.28;;
609;SDS011;292;48.800;9.216;2023-02-28T13:40:06;13.45;;;6.50;;
609;SDS011;292;48.800;9.216;2023-02-28T13:42:49;14.30;;;7.72;;
609;SDS011;292;48.800;9.216;2023-02-28T13:45:21;19.13;;;7.35;;
609;SDS011;292;48.800;9.216;2023-02-28T13:47:53;15.25;;;7.47;;
609;SDS011;292;48.800;9.216;2023-02-28T13:50:26;10.20;;;6.37;;
609;SDS011;292;48.800;9.216;2023-02-28T13:52:59;20.35;;;7.70;;
609;SDS011;292;48.800;9.216;2023-02-28T13:55:52;20.48;;;7.90;;
609;SDS011;292;48.800;9.216;2023-02-28T13:58:31;13.38;;;6.43;;
609;SDS011;292;48.800;9.216;2023-02-28T14:01:23;12.13;;;7.43;;
609;SDS011;292;48.800;9.216;2023-02-28T14:07:09;14.00;;;7.47;;
609;SDS011;292;48.800;9.216;2023-02-28T14:09:45;11.98;;;6.32;;
609;SDS011;292;48.800;9.216;2023-02-28T14:15:25;13.82;;;7.13;;
609;SDS011;292;48.800;9.216;2023-02-28T14:18:16;14.93;;;6.90;;
609;SDS011;292;48.800;9.216;2023-02-28T14:20:52;15.27;;;7.47;;
609;SDS011;292;48.800;9.216;2023-02-28T14:23:39;29.10;;;11.85;;
609;SDS011;292;48.800;9.216;2023-02-28T14:26:28;24.38;;;10.30;;
609;SDS011;292;48.800;9.216;2023-02-28T14:29:15;15.27;;;7.80;;
609;SDS011;292;48.800;9.216;2023-02-28T14:31:54;11.38;;;6.10;;
609;SDS011;292;48.800;9.216;2023-02-28T14:34:35;10.88;;;6.20;;
609;SDS011;292;48.800;9.216;2023-02-28T14:37:08;13.98;;;6.78;;
609;SDS011;292;48.800;9.216;2023-02-28T14:39:43;26.17;;;12.23;;
609;SDS011;292;48.800;9.216;2023-02-28T14:44:59;13.23;;;7.57;;
609;SDS011;292;48.800;9.216;2023-02-28T14:47:27;12.75;;;6.95;;
609;SDS011;292;48.800;9.216;2023-02-28T14:49:58;12.38;;;6.80;;
609;SDS011;292;48.800;9.216;2023-02-28T14:52:28;19.90;;;7.78;;
609;SDS011;292;48.800;9.216;2023-02-28T14:54:58;22.60;;;10.38;;
609;SDS011;292;48.800;9.216;2023-02-28T14:57:27;13.60;;;7.93;;
609;SDS011;292;48.800;9.216;2023-02-28T14:59:57;13.68;;;6.85;;
609;SDS011;292;48.800;9.216;2023-02-28T15:02:26;10.55;;;6.85;;
609;SDS011;292;48.800;9.216;2023-02-28T15:04:58;15.05;;;7.35;;
609;SDS011;292;48.800;9.216;2023-02-28T15:07:26;12.75;;;7.38;;
609;SDS011;292;48.800;9.216;2023-02-28T15:10:11;14.65;;;7.45;;
609;SDS011;292;48.800;9.216;2023-02-28T15:12:44;13.60;;;7.35;;
609;SDS011;292;48.800;9.216;2023-02-28T15:15:17;13.07;;;6.90;;
609;SDS011;292;48.800;9.216;2023-02-28T15:17:46;17.92;;;8.35;;
609;SDS011;292;48.800;9.216;2023-02-28T15:20:16;12.70;;;7.10;;
609;SDS011;292;48.800;9.216;2023-02-28T15:22:45;14.13;;;6.97;;
609;SDS011;292;48.800;9.216;2023-02-28T15:25:15;15.27;;;7.60;;
609;SDS011;292;48.800;9.216;2023-02-28T15:27:47;13.55;;;7.53;;
609;SDS011;292;48.800;9.216;2023-02-28T15:30:17;12.23;;;6.90;;
609;SDS011;292;48.800;9.216;2023-02-28T15:32:51;12.90;;;7.13;;
609;SDS011;292;48.800;9.216;2023-02-28T15:35:30;14.30;;;6.55;;
609;SDS011;292;48.800;9.216;2023-02-28T15:38:00;17.65;;;8.02;;
609;SDS011;292;48.800;9.216;2023-02-28T15:40:32;13.40;;;7.63;;
609;SDS011;292;48.800;9.216;2023-02-28T15:43:06;25.10;;;11.75;;
609;SDS011;292;48.800;9.216;2023-02-28T15:45:41;18.02;;;8.63;;
609;SDS011;292;48.800;9.216;2023-02-28T15:48:16;18.50;;;8.65;;
609;SDS011;292;48.800;9.216;2023-02-28T15:50:49;15.35;;;7.15;;
609;SDS011;292;48.800;9.216;2023-02-28T15:53:19;16.88;;;9.13;;
609;SDS011;292;48.800;9.216;2023-02-28T15:56:22;19.65;;;8.00;;
609;SDS011;292;48.800;9.216;2023-02-28T15:58:53;16.92;;;7.80;;
609;SDS011;292;48.800;9.216;2023-02-28T16:01:23;16.67;;;7.60;;
609;SDS011;292;48.800;9.216;2023-02-28T16:03:53;24.52;;;9.13;;
609;SDS011;292;48.800;9.216;2023-02-28T16:06:37;20.55;;;9.07;;
609;SDS011;292;48.800;9.216;2023-02-28T16:09:08;14.48;;;7.60;;
609;SDS011;292;48.800;9.216;2023-02-28T16:11:40;14.52;;;8.75;;
609;SDS011;292;48.800;9.216;2023-02-28T16:14:15;21.38;;;9.68;;
609;SDS011;292;48.800;9.216;2023-02-28T16:16:45;30.55;;;9.43;;
609;SDS011;292;48.800;9.216;2023-02-28T16:19:14;26.88;;;11.82;;
609;SDS011;292;48.800;9.216;2023-02-28T16:21:40;25.10;;;9.95;;
609;SDS011;292;48.800;9.216;2023-02-28T16:24:08;26.25;;;11.25;;
609;SDS011;292;48.800;9.216;2023-02-28T16:26:35;46.35;;;14.70;;
609;SDS011;292;48.800;9.216;2023-02-28T16:29:05;22.90;;;10.63;;
609;SDS011;292;48.800;9.216;2023-02-28T16:31:34;14.88;;;7.43;;
609;SDS011;292;48.800;9.216;2023-02-28T16:34:03;14.98;;;7.68;;
609;SDS011;292;48.800;9.216;2023-02-28T16:36:31;13.20;;;6.90;;
609;SDS011;292;48.800;9.216;2023-02-28T16:38:59;16.70;;;8.70;;